Time;durP1;ratioP1;P1;durP2;ratioP2;P2;SDS_P1;SDS_P2;PMS_P1;PMS_P2;Temp;Humidity;BMP_temperature;BMP_pressure;BME280_temperature;BME280_humidity;BME280_pressure;Samples;Min_cycle;Max_cycle;Signal;HPM_P1;HPM_P2
2021/12/26 02:44:03;;;;;;;;;;;-8.50;99.90;;;;;;6063189;23;20399;-96
2021/12/26 02:47:11;;;;;;;;;;;-7.60;99.90;;;;;;6058927;23;19922;-96
2021/12/26 03:00:10;;;;;;;;;;;-7.50;99.90;;;;;;5978205;24;19907;-96
2021/12/26 03:03:20;;;;;;;;;;;;;;;;;;;;;
2021/12/26 03:13:07;;;;;;;;;;;-7.70;99.90;;;;;;5843856;24;19928;-96
2021/12/26 03:16:18;;;;;;;;;;;-7.70;99.90;;;;;;5825539;24;19909;-96
2021/12/26 04:34:59;;;;;;;;;;;-7.70;99.90;;;;;;6233582;23;19920;-96
2021/12/26 04:52:19;;;;;;;;;;;;;;;;;;;;;
2021/12/26 04:55:49;;;;;;;;;;;;;;;;;;;;;
2021/12/26 15:22:00;;;;;;;;;;;-2.40;99.90;;;;;;6232644;22;19955;-58
2021/12/26 15:24:26;;;;;;;;;;;-2.50;99.90;;;;;;6236043;22;19964;-58
2021/12/26 15:26:59;;;;;;;;;;;-2.50;99.90;;;;;;6235258;22;20239;-58
2021/12/26 15:29:25;;;;;;;;;;;-2.60;99.90;;;;;;6236304;22;19950;-58
2021/12/26 15:31:51;;;;;;;;;;;-1.90;99.90;;;;;;6234767;23;20376;-59
2021/12/26 15:34:16;;;;;;;;;;;-2.70;99.90;;;;;;6235788;22;19958;-58
2021/12/26 15:36:43;;;;;;;;;;;-2.70;99.90;;;;;;6234312;23;20011;-57
2021/12/26 15:39:10;;;;;;;;;;;-2.70;99.90;;;;;;6235897;22;19924;-59
2021/12/26 15:41:37;;;;;;;;;;;-2.70;99.90;;;;;;6236662;22;20345;-57
2021/12/26 15:44:04;;;;;;;;;;;-2.80;99.90;;;;;;6236317;22;19919;-58
2021/12/26 15:46:31;;;;;;;;;;;-2.80;99.90;;;;;;6236606;22;20006;-57
2021/12/26 15:48:56;;;;;;;;;;;-2.80;99.90;;;;;;6235286;22;19920;-58
2021/12/26 15:51:23;;;;;;;;;;;-2.80;99.90;;;;;;6236271;22;19923;-59
2021/12/26 15:53:48;;;;;;;;;;;-2.90;99.90;;;;;;6236007;22;20459;-57
2021/12/26 15:56:14;;;;;;;;;;;-2.90;99.90;;;;;;6236236;22;19923;-58
2021/12/26 15:58:40;;;;;;;;;;;-2.90;99.90;;;;;;6235246;22;20073;-58
2021/12/26 16:01:06;;;;;;;;;;;-3.00;99.90;;;;;;6230524;22;19923;-58
2021/12/26 16:03:32;;;;;;;;;;;-3.00;99.90;;;;;;6232014;22;20530;-58
2021/12/26 16:05:57;;;;;;;;;;;-3.00;99.90;;;;;;6233594;22;19962;-59
2021/12/26 16:08:23;;;;;;;;;;;-3.00;99.90;;;;;;6232598;23;19923;-57
2021/12/26 16:10:50;;;;;;;;;;;-3.00;99.90;;;;;;6234362;22;19924;-59
2021/12/26 16:13:16;;;;;;;;;;;-3.00;99.90;;;;;;6235226;22;19923;-58
2021/12/26 16:15:42;;;;;;;;;;;-2.90;99.90;;;;;;6235576;23;19930;-59
2021/12/26 16:18:07;;;;;;;;;;;-3.00;99.90;;;;;;6235186;23;19924;-57
2021/12/26 16:20:33;;;;;;;;;;;-3.00;99.90;;;;;;6247357;22;20359;-58
2021/12/26 16:22:59;;;;;;;;;;;-3.00;99.90;;;;;;6238985;22;20229;-57
2021/12/26 16:25:24;;;;;;;;;;;-3.10;99.90;;;;;;6238253;22;19919;-59
2021/12/26 16:27:51;;;;;;;;;;;-3.10;99.90;;;;;;6266096;22;19989;-58
2021/12/26 16:30:18;;;;;;;;;;;-3.10;99.90;;;;;;6265831;22;19923;-58
2021/12/26 16:32:44;;;;;;;;;;;-3.20;99.90;;;;;;6238178;22;19984;-58
2021/12/26 16:35:10;;;;;;;;;;;-3.20;99.90;;;;;;6265728;22;20364;-58
2021/12/26 16:37:36;;;;;;;;;;;-3.20;99.90;;;;;;6265724;22;20067;-57
2021/12/26 16:40:06;;;;;;;;;;;-3.20;99.90;;;;;;6212003;22;19923;-58
2021/12/26 16:42:31;;;;;;;;;;;-3.20;99.90;;;;;;6264821;22;20245;-58
2021/12/26 16:44:57;;;;;;;;;;;-3.20;99.90;;;;;;6265955;22;19927;-57
2021/12/26 16:47:22;;;;;;;;;;;-3.30;99.90;;;;;;6266217;22;20324;-58
2021/12/26 16:49:48;;;;;;;;;;;-3.30;99.90;;;;;;6265487;22;19923;-57
2021/12/26 16:52:14;;;;;;;;;;;-3.30;99.90;;;;;;6266136;22;19923;-59
2021/12/26 16:54:39;;;;;;;;;;;-3.40;99.90;;;;;;6264943;22;19923;-58
2021/12/26 16:57:05;;;;;;;;;;;-3.30;99.90;;;;;;6266369;22;19923;-59
2021/12/26 16:59:30;;;;;;;;;;;-3.90;99.90;;;;;;6265198;22;20486;-60
2021/12/26 17:01:56;;;;;;;;;;;-2.80;99.90;;;;;;6265944;22;19923;-59
2021/12/26 17:04:23;;;;;;;;;;;-3.30;99.90;;;;;;6264270;22;19923;-58
2021/12/26 17:06:49;;;;;;;;;;;-3.30;99.90;;;;;;6265865;22;19923;-60
2021/12/26 17:09:16;;;;;;;;;;;-3.40;99.90;;;;;;6263857;22;19923;-59
2021/12/26 17:11:42;;;;;;;;;;;-3.40;99.90;;;;;;6265564;22;19927;-61
2021/12/26 17:14:07;;;;;;;;;;;-3.40;99.90;;;;;;6265013;22;19930;-58
2021/12/26 17:16:33;;;;;;;;;;;-3.40;99.90;;;;;;6236428;22;19931;-57
2021/12/26 17:18:59;;;;;;;;;;;-3.40;99.90;;;;;;6265856;22;19934;-57
2021/12/26 17:21:24;;;;;;;;;;;-3.40;99.90;;;;;;6264728;22;19931;-59
2021/12/26 17:23:50;;;;;;;;;;;-3.30;99.90;;;;;;6266337;22;19923;-58
2021/12/26 17:26:15;;;;;;;;;;;-3.30;99.90;;;;;;6263011;22;19919;-58
2021/12/26 17:28:41;;;;;;;;;;;-3.40;99.90;;;;;;6265409;22;19923;-57
2021/12/26 17:31:07;;;;;;;;;;;-3.40;99.90;;;;;;6264034;22;20206;-57
2021/12/26 17:33:34;;;;;;;;;;;-3.40;99.90;;;;;;6237797;22;20230;-58
2021/12/26 17:36:04;;;;;;;;;;;-3.30;99.90;;;;;;6265007;22;19939;-57
2021/12/26 17:38:29;;;;;;;;;;;-3.40;99.90;;;;;;6265123;22;20006;-57
2021/12/26 17:40:55;;;;;;;;;;;-3.30;99.90;;;;;;6263916;22;19962;-58
2021/12/26 17:43:24;;;;;;;;;;;-3.30;99.90;;;;;;6265087;22;19927;-59
2021/12/26 17:45:51;;;;;;;;;;;-3.30;99.90;;;;;;6264250;22;19927;-58
2021/12/26 17:48:16;;;;;;;;;;;-3.30;99.90;;;;;;6265206;22;20005;-57
2021/12/26 17:50:42;;;;;;;;;;;-3.30;99.90;;;;;;6264200;22;19965;-58
2021/12/26 17:53:07;;;;;;;;;;;-3.20;99.90;;;;;;6264827;22;19923;-57
2021/12/26 17:55:33;;;;;;;;;;;-0.90;99.90;;;;;;6264274;22;19924;-62
2021/12/26 17:57:59;;;;;;;;;;;-3.20;99.90;;;;;;6264839;22;20045;-58
2021/12/26 18:00:24;;;;;;;;;;;-3.20;99.90;;;;;;6236637;22;19924;-57
2021/12/26 18:02:50;;;;;;;;;;;-3.20;99.90;;;;;;6263713;22;20212;-59
2021/12/26 18:05:17;;;;;;;;;;;-3.20;99.90;;;;;;6264848;22;20049;-58
2021/12/26 18:07:42;;;;;;;;;;;-3.20;99.90;;;;;;6236384;22;19926;-58
2021/12/26 18:10:08;;;;;;;;;;;-3.20;99.90;;;;;;6263863;22;19930;-58
2021/12/26 18:12:35;;;;;;;;;;;-3.20;99.90;;;;;;6264388;22;20338;-58
2021/12/26 18:15:02;;;;;;;;;;;-3.20;99.90;;;;;;6264955;22;19928;-58
2021/12/26 18:17:27;;;;;;;;;;;-3.20;99.90;;;;;;6235351;22;19924;-57
2021/12/26 18:19:53;;;;;;;;;;;-3.30;99.90;;;;;;6263455;22;19934;-61
2021/12/26 18:22:18;;;;;;;;;;;-3.30;99.90;;;;;;6264498;22;19938;-58
2021/12/26 18:24:44;;;;;;;;;;;-3.30;99.90;;;;;;6264843;22;20360;-59
2021/12/26 18:27:10;;;;;;;;;;;-3.30;99.90;;;;;;6263425;22;20308;-59
2021/12/26 18:29:35;;;;;;;;;;;-3.30;99.90;;;;;;6236468;22;20015;-61
2021/12/26 18:32:01;;;;;;;;;;;-3.30;99.90;;;;;;6262736;22;20009;-57
2021/12/26 18:34:26;;;;;;;;;;;-3.30;99.90;;;;;;6236372;22;19923;-58
2021/12/26 18:36:52;;;;;;;;;;;-1.50;99.90;;;;;;6235677;22;19923;-58
2021/12/26 18:39:18;;;;;;;;;;;-3.30;99.90;;;;;;6262446;22;20287;-59
2021/12/26 18:41:43;;;;;;;;;;;-3.30;99.90;;;;;;6263417;22;20387;-59
2021/12/26 18:44:09;;;;;;;;;;;-3.30;99.90;;;;;;6263802;22;19923;-58
2021/12/26 18:46:34;;;;;;;;;;;-3.30;99.90;;;;;;6236271;22;20034;-58
2021/12/26 18:49:01;;;;;;;;;;;-3.20;99.90;;;;;;6263908;22;19928;-58
2021/12/26 18:51:27;;;;;;;;;;;-3.20;99.90;;;;;;6263818;22;19976;-57
2021/12/26 18:53:54;;;;;;;;;;;-2.50;99.90;;;;;;6264337;22;20044;-58
2021/12/26 18:56:22;;;;;;;;;;;-3.20;99.90;;;;;;6263460;22;19995;-57
2021/12/26 18:58:47;;;;;;;;;;;-3.10;99.90;;;;;;6262742;22;19930;-57
2021/12/26 19:01:13;;;;;;;;;;;-1.90;99.90;;;;;;6261395;22;19923;-59
2021/12/26 19:03:39;;;;;;;;;;;-3.00;99.90;;;;;;6261957;22;19927;-59
2021/12/26 19:06:04;;;;;;;;;;;-3.00;99.90;;;;;;6263109;22;19960;-59
2021/12/26 19:08:31;;;;;;;;;;;-2.90;99.90;;;;;;6263610;22;20076;-58
2021/12/26 19:10:57;;;;;;;;;;;-1.90;99.90;;;;;;6262047;22;19966;-59
2021/12/26 19:13:24;;;;;;;;;;;-2.90;99.90;;;;;;6263148;22;19986;-59
2021/12/26 19:15:50;;;;;;;;;;;-2.90;99.90;;;;;;6262546;22;19923;-59
2021/12/26 19:18:16;;;;;;;;;;;-2.80;99.90;;;;;;6261576;22;20300;-62
2021/12/26 19:20:41;;;;;;;;;;;-2.70;99.90;;;;;;6263018;22;19923;-63
2021/12/26 19:23:07;;;;;;;;;;;-2.70;99.90;;;;;;6235817;22;19923;-63
2021/12/26 19:25:33;;;;;;;;;;;-2.20;99.90;;;;;;6262212;22;19923;-62
2021/12/26 19:28:00;;;;;;;;;;;-2.70;99.90;;;;;;6264498;22;19987;-61
2021/12/26 19:30:26;;;;;;;;;;;-2.60;99.90;;;;;;6235657;22;19923;-64
2021/12/26 19:32:55;;;;;;;;;;;-2.60;99.90;;;;;;6265657;22;19923;-62
2021/12/26 19:35:23;;;;;;;;;;;-2.60;99.90;;;;;;6264824;22;19962;-58
2021/12/26 19:37:49;;;;;;;;;;;-2.60;99.90;;;;;;6265525;22;19923;-59
2021/12/26 19:40:15;;;;;;;;;;;-2.50;99.90;;;;;;6237448;22;20063;-59
2021/12/26 19:42:46;;;;;;;;;;;-2.50;99.90;;;;;;6266295;22;20386;-62
2021/12/26 19:45:12;;;;;;;;;;;-2.50;99.90;;;;;;6262721;22;19969;-62
2021/12/26 19:47:38;;;;;;;;;;;-2.50;99.90;;;;;;6264852;22;19992;-63
2021/12/26 19:50:04;;;;;;;;;;;-2.40;99.90;;;;;;6212156;22;20018;-58
2021/12/26 19:52:30;;;;;;;;;;;-2.40;99.90;;;;;;6266167;22;19923;-58
2021/12/26 19:54:56;;;;;;;;;;;-2.40;99.90;;;;;;6264985;22;19946;-57
2021/12/26 19:57:21;;;;;;;;;;;-2.40;99.90;;;;;;6237359;22;20226;-57
2021/12/26 19:59:48;;;;;;;;;;;-2.30;99.90;;;;;;6265273;22;19934;-58
2021/12/26 20:02:14;;;;;;;;;;;-2.30;99.90;;;;;;6265567;22;20306;-57
2021/12/26 20:04:40;;;;;;;;;;;-2.30;99.90;;;;;;6265284;22;19992;-59
2021/12/26 20:07:05;;;;;;;;;;;-2.30;99.90;;;;;;6266118;22;20332;-58
2021/12/26 20:09:31;;;;;;;;;;;-2.30;99.90;;;;;;6264878;22;19919;-57
2021/12/26 20:11:56;;;;;;;;;;;-1.50;99.90;;;;;;6237761;22;19934;-57
2021/12/26 20:14:22;;;;;;;;;;;-2.10;99.90;;;;;;6262183;22;20310;-58
2021/12/26 20:16:48;;;;;;;;;;;-2.20;99.90;;;;;;6265734;22;19923;-58
2021/12/26 20:19:16;;;;;;;;;;;-2.20;99.90;;;;;;6262841;22;20013;-58
2021/12/26 20:21:45;;;;;;;;;;;-2.20;99.90;;;;;;6265729;22;20317;-58
2021/12/26 20:24:12;;;;;;;;;;;-2.00;99.90;;;;;;6264959;22;19931;-59
2021/12/26 20:26:37;;;;;;;;;;;-2.10;99.90;;;;;;6265852;22;19923;-57
2021/12/26 20:29:03;;;;;;;;;;;-2.10;99.90;;;;;;6264623;22;19997;-58
2021/12/26 20:31:28;;;;;;;;;;;-2.10;99.90;;;;;;6265428;22;19923;-59
2021/12/26 20:33:57;;;;;;;;;;;-2.00;99.90;;;;;;6264938;22;19923;-58
2021/12/26 20:36:27;;;;;;;;;;;-2.00;99.90;;;;;;6264266;22;20357;-57
2021/12/26 20:38:53;;;;;;;;;;;-1.40;99.90;;;;;;6266455;22;19981;-62
2021/12/26 20:41:18;;;;;;;;;;;0.10;99.90;;;;;;6264664;22;19924;-58
2021/12/26 20:43:44;;;;;;;;;;;-1.90;99.90;;;;;;6266858;22;20322;-58
2021/12/26 20:46:10;;;;;;;;;;;-2.00;99.90;;;;;;6264922;22;19929;-62
2021/12/26 20:48:35;;;;;;;;;;;-1.90;99.90;;;;;;6266109;22;19924;-57
2021/12/26 20:51:06;;;;;;;;;;;-1.90;99.90;;;;;;6264796;22;19927;-57
2021/12/26 20:53:33;;;;;;;;;;;-1.90;99.90;;;;;;6266497;22;19923;-58
2021/12/26 20:55:58;;;;;;;;;;;-1.90;99.90;;;;;;6265844;22;19923;-58
2021/12/26 20:58:24;;;;;;;;;;;-1.90;99.90;;;;;;6266351;22;20372;-59
2021/12/26 21:00:49;;;;;;;;;;;-1.90;99.90;;;;;;6264682;22;19930;-58
2021/12/26 21:03:16;;;;;;;;;;;-1.80;99.90;;;;;;6265956;22;19928;-63
2021/12/26 21:05:42;;;;;;;;;;;-1.80;99.90;;;;;;6264879;22;19923;-61
2021/12/26 21:08:07;;;;;;;;;;;-1.80;99.90;;;;;;6256326;22;19977;-57
2021/12/26 21:10:33;;;;;;;;;;;-1.80;99.90;;;;;;6264312;22;19930;-58
2021/12/26 21:12:58;;;;;;;;;;;-2.20;99.90;;;;;;6237255;22;19923;-59
2021/12/26 21:15:24;;;;;;;;;;;-1.80;99.90;;;;;;6264200;22;19927;-58
2021/12/26 21:17:50;;;;;;;;;;;-1.80;99.90;;;;;;6264076;22;20349;-58
2021/12/26 21:20:16;;;;;;;;;;;-1.30;99.90;;;;;;6263431;22;20386;-58
2021/12/26 21:22:42;;;;;;;;;;;-1.80;99.90;;;;;;6264575;22;19923;-57
2021/12/26 21:25:08;;;;;;;;;;;-1.80;99.90;;;;;;6264010;22;19930;-58
2021/12/26 21:27:34;;;;;;;;;;;-1.80;99.90;;;;;;6264520;22;19923;-58
2021/12/26 21:30:00;;;;;;;;;;;-1.70;99.90;;;;;;6236939;22;20488;-58
2021/12/26 21:32:26;;;;;;;;;;;-1.80;99.90;;;;;;6265129;22;19923;-58
2021/12/26 21:34:52;;;;;;;;;;;-1.70;99.90;;;;;;6263080;22;20057;-58
2021/12/26 21:37:18;;;;;;;;;;;-1.70;99.90;;;;;;6263961;22;19990;-58
2021/12/26 21:39:43;;;;;;;;;;;-1.70;99.90;;;;;;6264738;22;20260;-57
2021/12/26 21:42:09;;;;;;;;;;;0.30;99.90;;;;;;6263364;22;19923;-57
2021/12/26 21:44:35;;;;;;;;;;;-1.70;99.90;;;;;;6264812;22;19985;-58
2021/12/26 21:47:02;;;;;;;;;;;-1.20;99.90;;;;;;6264515;22;20116;-58
2021/12/26 21:49:28;;;;;;;;;;;-1.70;99.90;;;;;;6238645;22;19927;-57
2021/12/26 21:51:54;;;;;;;;;;;-1.40;99.90;;;;;;6266360;22;19959;-57
2021/12/26 21:54:20;;;;;;;;;;;-1.70;99.90;;;;;;6266284;22;19923;-57
2021/12/26 21:56:46;;;;;;;;;;;-1.70;99.90;;;;;;6265464;22;20140;-58
2021/12/26 21:59:16;;;;;;;;;;;-1.70;99.90;;;;;;6238785;22;19930;-58
2021/12/26 22:01:44;;;;;;;;;;;-1.70;99.90;;;;;;6266332;22;20261;-57
2021/12/26 22:04:10;;;;;;;;;;;-1.70;99.90;;;;;;6265135;22;20342;-57
2021/12/26 22:06:36;;;;;;;;;;;-1.70;99.90;;;;;;6265295;22;19923;-58
2021/12/26 22:09:02;;;;;;;;;;;-1.80;99.90;;;;;;6238701;22;19992;-58
2021/12/26 22:11:27;;;;;;;;;;;-1.80;99.90;;;;;;6265791;22;19923;-57
2021/12/26 22:13:53;;;;;;;;;;;-1.80;99.90;;;;;;6238099;22;19930;-57
2021/12/26 22:16:19;;;;;;;;;;;-1.80;99.90;;;;;;6265361;22;19930;-57
2021/12/26 22:18:44;;;;;;;;;;;-1.80;99.90;;;;;;6265054;22;19993;-58
2021/12/26 22:21:10;;;;;;;;;;;-1.80;99.90;;;;;;6237757;22;19923;-59
2021/12/26 22:23:35;;;;;;;;;;;-1.90;99.90;;;;;;6265339;22;20230;-57
2021/12/26 22:26:01;;;;;;;;;;;-1.60;99.90;;;;;;6265315;22;19981;-57
2021/12/26 22:28:27;;;;;;;;;;;-1.90;99.90;;;;;;6237155;22;19923;-58
2021/12/26 22:30:52;;;;;;;;;;;-1.90;99.90;;;;;;6264427;22;20446;-57
2021/12/26 22:33:18;;;;;;;;;;;-1.90;99.90;;;;;;6264829;22;20238;-58
2021/12/26 22:35:44;;;;;;;;;;;-1.90;99.90;;;;;;6265399;22;20342;-57
2021/12/26 22:38:09;;;;;;;;;;;-1.90;99.90;;;;;;6263085;22;19927;-58
2021/12/26 22:40:35;;;;;;;;;;;-1.90;99.90;;;;;;6267509;22;20484;-57
2021/12/26 22:43:02;;;;;;;;;;;-1.10;99.90;;;;;;6267018;22;19927;-57
2021/12/26 22:45:28;;;;;;;;;;;-1.90;99.90;;;;;;6267578;22;19966;-57
2021/12/26 22:47:54;;;;;;;;;;;-1.90;99.90;;;;;;6266887;22;20341;-57
2021/12/26 22:50:20;;;;;;;;;;;-1.40;99.90;;;;;;6266048;22;19954;-58
2021/12/26 22:52:46;;;;;;;;;;;-1.80;99.90;;;;;;6267542;22;19923;-59
2021/12/26 22:55:12;;;;;;;;;;;-1.80;99.90;;;;;;6268362;22;20356;-59
2021/12/26 22:57:37;;;;;;;;;;;-1.80;99.90;;;;;;6240824;22;19924;-58
2021/12/26 23:00:05;;;;;;;;;;;-1.80;99.90;;;;;;6268665;22;19923;-57
2021/12/26 23:02:31;;;;;;;;;;;-1.80;99.90;;;;;;6267866;22;20296;-58
2021/12/26 23:04:56;;;;;;;;;;;-1.80;99.90;;;;;;6268238;22;19958;-57
2021/12/26 23:07:22;;;;;;;;;;;-1.80;99.90;;;;;;6268539;22;20382;-58
2021/12/26 23:09:47;;;;;;;;;;;-1.80;99.90;;;;;;6268039;22;19923;-58
2021/12/26 23:12:13;;;;;;;;;;;-1.80;99.90;;;;;;6268016;22;20001;-57
2021/12/26 23:14:38;;;;;;;;;;;-1.80;99.90;;;;;;6267649;22;19930;-58
2021/12/26 23:17:05;;;;;;;;;;;-1.80;99.90;;;;;;6268602;22;19927;-57
2021/12/26 23:19:31;;;;;;;;;;;-1.80;99.90;;;;;;6239494;22;20105;-57
2021/12/26 23:21:57;;;;;;;;;;;-1.80;99.90;;;;;;6267657;22;20341;-58
2021/12/26 23:24:22;;;;;;;;;;;-1.80;99.90;;;;;;6268867;22;20410;-57
2021/12/26 23:26:48;;;;;;;;;;;-1.80;99.90;;;;;;6267831;22;20409;-57
2021/12/26 23:29:13;;;;;;;;;;;-1.80;99.90;;;;;;6268416;22;19931;-57
2021/12/26 23:31:39;;;;;;;;;;;-1.80;99.90;;;;;;6267986;22;20358;-57
2021/12/26 23:34:05;;;;;;;;;;;-1.80;99.90;;;;;;6268741;22;20368;-57
2021/12/26 23:36:30;;;;;;;;;;;-1.80;99.90;;;;;;6267925;22;20074;-57
2021/12/26 23:38:57;;;;;;;;;;;-1.80;99.90;;;;;;6268161;22;19923;-57
2021/12/26 23:41:23;;;;;;;;;;;-1.90;99.90;;;;;;6268643;22;19923;-57
2021/12/26 23:43:51;;;;;;;;;;;-1.90;99.90;;;;;;6270568;22;19997;-57
2021/12/26 23:46:17;;;;;;;;;;;-1.90;99.90;;;;;;6271874;22;19968;-57
2021/12/26 23:48:43;;;;;;;;;;;-1.90;99.90;;;;;;6241927;22;19924;-60
2021/12/26 23:51:09;;;;;;;;;;;-2.00;99.90;;;;;;6270129;22;20332;-58
2021/12/26 23:53:34;;;;;;;;;;;-2.00;99.90;;;;;;6271754;22;19923;-57
2021/12/26 23:56:02;;;;;;;;;;;-2.00;99.90;;;;;;6243946;22;19990;-57
2021/12/26 23:58:27;;;;;;;;;;;-1.20;99.90;;;;;;6270905;22;19930;-58
